.
WxDataArchive / Data Records for 2012-04-25
2012-04-24 April 2012 2012-04-26

Data Records for Wednesday, 25 April 2012

Time	Temp	Chill	HIndex	Humid	Dewpt	 Wind 	HiWind	WindDir	Rain 	Barom 
-----	----	-----	------	-----	-----	------	------	-------	-----	----- 
00:00	43.3	43.3	43.3	52	26.9	0	1	270	0.00	29.718 
00:05	44.2	44.2	44.2	48	25.8	0	2	270	0.00	29.718 
00:10	45.1	45.1	45.1	47	26.1	0	2	270	0.00	29.718 
00:15	45.8	45.8	45.8	46	26.2	0	1	270	0.00	29.714 
00:20	46.4	46.4	46.4	44	25.7	0	1	270	0.00	29.714 
00:25	46.8	46.8	46.8	43	25.5	0	2	270	0.00	29.714 
00:30	47.1	47.1	47.1	43	25.8	0	1	270	0.00	29.716 
00:35	47.1	47.1	47.1	43	25.8	0	1	270	0.00	29.716 
00:40	47.0	47.0	47.0	43	25.7	0	1	270	0.00	29.716 
00:45	46.7	46.7	46.7	44	26.0	0	0	---	0.00	29.721 
00:50	46.4	46.4	46.4	44	25.7	0	0	---	0.00	29.721 
00:55	46.0	46.0	46.0	45	25.9	0	0	---	0.00	29.721 
01:00	45.7	45.7	45.7	46	26.1	0	0	---	0.00	29.722 
01:05	45.1	45.1	45.1	48	26.6	0	0	---	0.00	29.722 
01:10	44.6	44.6	44.6	50	27.1	0	0	---	0.00	29.722 
01:15	44.3	44.3	44.3	51	27.3	0	0	---	0.00	29.723 
01:20	44.1	44.1	44.1	51	27.1	0	1	270	0.00	29.723 
01:25	43.8	43.8	43.8	53	27.8	0	0	---	0.00	29.723 
01:30	43.3	43.3	43.3	54	27.8	0	0	---	0.00	29.725 
01:35	43.1	43.1	43.1	57	28.9	0	0	---	0.00	29.725 
01:40	42.6	42.6	42.6	58	28.9	0	0	---	0.00	29.725 
01:45	42.5	42.5	42.5	59	29.2	0	0	---	0.00	29.728 
01:50	42.2	42.2	42.2	58	28.5	0	0	---	0.00	29.728 
01:55	41.9	41.9	41.9	59	28.6	0	0	---	0.00	29.728 
02:00	41.6	41.6	41.6	59	28.3	0	0	---	0.00	29.724 
02:05	41.2	41.2	41.2	60	28.4	0	0	---	0.00	29.724 
02:10	40.9	40.9	40.9	61	28.5	0	0	---	0.00	29.724 
02:15	40.6	40.6	40.6	60	27.8	0	0	---	0.00	29.722 
02:20	40.3	40.3	40.3	61	27.9	0	0	---	0.00	29.722 
02:25	40.1	40.1	40.1	62	28.1	0	0	---	0.00	29.722 
02:30	39.9	39.9	39.9	62	28.0	0	0	---	0.00	29.723 
02:35	39.6	39.6	39.6	62	27.7	0	0	---	0.00	29.723 
02:40	39.3	39.3	39.3	63	27.8	0	0	---	0.00	29.723 
02:45	39.1	39.1	39.1	63	27.6	0	0	---	0.00	29.724 
02:50	38.9	38.9	38.9	65	28.2	0	0	---	0.00	29.724 
02:55	38.6	38.6	38.6	64	27.5	0	0	---	0.00	29.724 
03:00	38.5	38.5	38.5	65	27.8	0	0	---	0.00	29.722 
03:05	38.3	38.3	38.3	65	27.6	0	0	---	0.00	29.722 
03:10	38.2	38.2	38.2	66	27.9	0	0	---	0.00	29.722 
03:15	38.0	38.0	38.0	66	27.7	0	0	---	0.00	29.725 
03:20	37.9	37.9	37.9	66	27.6	0	0	---	0.00	29.725 
03:25	37.8	37.8	37.8	68	28.2	0	0	---	0.00	29.725 
03:30	37.8	37.8	37.8	68	28.2	0	0	---	0.00	29.724 
03:35	37.6	37.6	37.6	69	28.4	0	0	---	0.00	29.724 
03:40	37.5	37.5	37.5	69	28.3	0	0	---	0.00	29.724 
03:45	37.3	37.3	37.3	71	28.8	0	0	---	0.00	29.726 
03:50	37.2	37.2	37.2	72	29.0	0	0	---	0.00	29.726 
03:55	37.0	37.0	37.0	72	28.8	0	0	---	0.00	29.726 
04:00	36.9	36.9	36.9	73	29.1	0	0	---	0.00	29.725 
04:05	36.8	36.8	36.8	74	29.3	0	0	---	0.00	29.725 
04:10	36.6	36.6	36.6	76	29.8	0	0	---	0.00	29.725 
04:15	36.5	36.5	36.5	76	29.7	0	0	---	0.00	29.730 
04:20	36.5	36.5	36.5	76	29.7	0	0	---	0.00	29.730 
04:25	36.3	36.3	36.3	77	29.8	0	0	---	0.00	29.730 
04:30	36.2	36.2	36.2	77	29.7	0	0	---	0.00	29.733 
04:35	36.0	36.0	36.0	77	29.5	0	0	---	0.00	29.733 
04:40	36.0	36.0	36.0	78	29.8	0	0	---	0.00	29.733 
04:45	35.9	35.9	35.9	78	29.7	0	0	---	0.00	29.730 
04:50	35.9	35.9	35.9	79	30.0	0	0	---	0.00	29.730 
04:55	35.8	35.8	35.8	79	29.9	0	0	---	0.00	29.730 
05:00	35.8	35.8	35.8	79	29.9	0	0	---	0.00	29.734 
05:05	35.6	35.6	35.6	80	30.1	0	0	---	0.00	29.734 
05:10	35.6	35.6	35.6	80	30.1	0	0	---	0.00	29.734 
05:15	35.5	35.5	35.5	80	30.0	0	0	---	0.00	29.735 
05:20	35.3	35.3	35.3	80	29.8	0	0	---	0.00	29.735 
05:25	35.2	35.2	35.2	80	29.7	0	0	---	0.00	29.735 
05:30	35.2	35.2	35.2	79	29.4	0	0	---	0.00	29.741 
05:35	35.0	35.0	35.0	79	29.2	0	0	---	0.00	29.741 
05:40	35.0	35.0	35.0	79	29.2	0	0	---	0.00	29.741 
05:45	34.9	34.9	34.9	78	28.7	0	0	---	0.00	29.744 
05:50	34.9	34.9	34.9	78	28.7	0	0	---	0.00	29.744 
05:55	34.9	34.9	34.9	78	28.7	0	0	---	0.00	29.744 
06:00	34.7	34.7	34.7	78	28.6	0	0	---	0.00	29.746 
06:05	34.7	34.7	34.7	79	28.9	0	0	---	0.00	29.746 
06:10	34.7	34.7	34.7	79	28.9	0	0	---	0.00	29.746 
06:15	34.6	34.6	34.6	79	28.8	0	0	---	0.00	29.755 
06:20	34.4	34.4	34.4	80	28.9	0	0	---	0.00	29.755 
06:25	34.4	34.4	34.4	80	28.9	0	0	---	0.00	29.755 
06:30	34.3	34.3	34.3	81	29.1	0	0	---	0.00	29.761 
06:35	34.3	34.3	34.3	81	29.1	0	0	---	0.00	29.761 
06:40	34.3	34.3	34.3	82	29.4	0	0	---	0.00	29.761 
06:45	34.3	34.3	34.3	82	29.4	0	0	---	0.00	29.761 
06:50	34.3	34.3	34.3	82	29.4	0	0	---	0.00	29.761 
06:55	34.3	34.3	34.3	82	29.4	0	0	---	0.00	29.761 
07:00	34.4	34.4	34.4	81	29.2	0	0	---	0.00	29.772 
07:05	34.4	34.4	34.4	81	29.2	0	0	---	0.00	29.772 
07:10	34.6	34.6	34.6	81	29.4	0	0	---	0.00	29.772 
07:15	34.6	34.6	34.6	80	29.1	0	0	---	0.00	29.778 
07:20	34.7	34.7	34.7	80	29.2	0	0	---	0.00	29.778 
07:25	34.9	34.9	34.9	80	29.4	0	0	---	0.00	29.778 
07:30	35.0	35.0	35.0	79	29.2	0	0	---	0.00	29.781 
07:35	35.3	35.3	35.3	79	29.4	0	0	---	0.00	29.781 
07:40	35.8	35.8	35.8	79	29.9	0	0	---	0.00	29.781 
07:45	36.2	36.2	36.2	79	30.3	0	0	---	0.00	29.790 
07:50	36.6	36.6	36.6	77	30.1	0	0	---	0.00	29.790 
07:55	37.2	37.2	37.2	74	29.7	0	0	---	0.00	29.790 
08:00	37.8	37.8	37.8	72	29.6	0	0	---	0.00	29.791 
08:05	38.8	38.8	38.8	66	28.4	0	1	270	0.00	29.791 
08:10	39.8	39.8	39.8	63	28.2	0	0	---	0.00	29.791 
08:15	40.8	40.8	40.8	62	28.8	0	0	---	0.00	29.791 
08:20	41.9	41.9	41.9	59	28.6	0	1	270	0.00	29.791 
08:25	43.8	43.8	43.8	57	29.6	0	1	270	0.00	29.791 
08:30	45.4	45.4	45.4	51	28.3	0	3	270	0.00	29.786 
08:35	46.8	46.8	46.8	50	29.2	0	1	270	0.00	29.786 
08:40	48.2	48.2	48.2	50	30.4	0	1	270	0.00	29.786 
08:45	49.1	49.1	49.1	49	30.8	0	2	270	0.00	29.786 
08:50	49.6	49.6	49.6	49	31.2	0	1	270	0.00	29.786 
08:55	50.5	50.5	50.5	49	32.1	0	1	270	0.00	29.786 
09:00	51.3	51.3	51.3	50	33.3	0	1	270	0.00	29.785 
09:05	52.0	52.0	52.0	51	34.4	0	1	270	0.00	29.785 
09:10	52.8	52.8	52.8	50	34.7	0	1	270	0.00	29.785 
09:15	53.5	53.5	53.5	49	34.8	1	2	270	0.00	29.791 
09:20	53.9	53.9	53.9	49	35.2	1	3	270	0.00	29.791 
09:25	54.1	54.1	54.1	51	36.4	1	4	90	0.00	29.791 
09:30	54.2	54.2	54.2	53	37.4	1	2	90	0.00	29.796 
09:35	54.8	54.8	54.8	53	38.0	0	3	90	0.00	29.796 
09:40	55.4	55.4	55.4	52	38.1	0	3	90	0.00	29.796 
09:45	56.0	56.0	56.0	52	38.6	1	4	90	0.00	29.795 
09:50	56.2	56.2	56.2	53	39.3	0	2	90	0.00	29.795 
09:55	56.5	56.5	56.5	52	39.1	1	3	90	0.00	29.795 
10:00	56.7	56.7	56.7	51	38.8	1	2	90	0.00	29.800 
10:05	57.0	57.0	57.0	53	40.0	1	3	90	0.00	29.800 
10:10	57.0	57.0	57.0	53	40.0	0	2	90	0.00	29.800 
10:15	57.3	57.3	57.3	53	40.3	1	3	90	0.00	29.800 
10:20	57.6	57.6	57.6	54	41.1	0	2	90	0.00	29.800 
10:25	58.1	58.1	58.1	54	41.5	0	2	90	0.00	29.800 
10:30	58.1	58.1	58.1	52	40.6	1	5	90	0.00	29.794 
10:35	58.4	58.4	58.4	54	41.8	0	2	112	0.00	29.794 
10:40	58.7	58.7	58.7	52	41.1	0	2	112	0.00	29.794 
10:45	59.0	59.0	59.0	52	41.4	1	3	112	0.00	29.795 
10:50	59.2	59.2	59.2	53	42.1	0	2	112	0.00	29.795 
10:55	59.2	59.2	59.2	53	42.1	1	3	112	0.00	29.795 
11:00	59.2	59.2	59.2	53	42.1	1	3	112	0.00	29.790 
11:05	59.3	59.3	59.3	53	42.2	1	3	112	0.00	29.790 
11:10	59.3	59.3	59.3	51	41.2	1	3	112	0.00	29.790 
11:15	59.3	59.3	59.3	54	42.7	0	2	112	0.00	29.798 
11:20	59.6	59.6	59.6	53	42.4	0	1	112	0.00	29.798 
11:25	59.6	59.6	59.6	51	41.4	0	2	112	0.00	29.798 
11:30	59.6	59.6	59.6	52	42.0	0	2	112	0.00	29.798 
11:35	59.5	59.5	59.5	52	41.9	0	2	112	0.00	29.798 
11:40	59.5	59.5	59.5	51	41.4	0	3	270	0.00	29.798 
11:45	59.8	59.8	59.8	52	42.1	0	1	270	0.00	29.799 
11:50	59.9	59.9	59.9	50	41.2	0	2	270	0.00	29.799 
11:55	59.9	59.9	59.9	50	41.2	1	3	68	0.00	29.799 
12:00	59.9	59.9	59.9	49	40.7	0	2	90	0.00	29.797 
12:05	59.8	59.8	59.8	50	41.1	0	1	90	0.00	29.797 
12:10	59.8	59.8	59.8	49	40.6	1	3	90	0.00	29.797 
12:15	59.8	59.8	59.8	51	41.6	0	2	90	0.00	29.790 
12:20	59.9	59.9	59.9	52	42.2	0	1	90	0.00	29.790 
12:25	60.1	60.1	60.1	52	42.4	0	1	90	0.00	29.790 
12:30	60.2	60.2	60.2	50	41.5	0	1	90	0.00	29.794 
12:35	60.1	60.1	60.1	51	41.9	0	2	90	0.00	29.794 
12:40	59.9	59.9	59.9	51	41.7	0	1	90	0.00	29.794 
12:45	59.8	59.8	59.8	52	42.1	0	1	90	0.00	29.792 
12:50	59.8	59.8	59.8	52	42.1	0	1	90	0.00	29.792 
12:55	59.6	59.6	59.6	50	40.9	0	3	90	0.00	29.792 
13:00	59.6	59.6	59.6	52	42.0	0	1	90	0.00	29.779 
13:05	59.5	59.5	59.5	52	41.9	1	5	90	0.00	29.779 
13:10	59.3	59.3	59.3	52	41.7	0	1	90	0.00	29.779 
13:15	59.3	59.3	59.3	53	42.2	0	2	90	0.00	29.776 
13:20	59.2	59.2	59.2	54	42.6	0	1	90	0.00	29.776 
13:25	59.2	59.2	59.2	53	42.1	0	2	90	0.00	29.776 
13:30	59.0	59.0	59.0	54	42.4	0	2	90	0.00	29.765 
13:35	59.0	59.0	59.0	55	42.9	0	3	90	0.00	29.765 
13:40	59.0	59.0	59.0	56	43.3	0	1	90	0.00	29.765 
13:45	59.0	59.0	59.0	59	44.7	0	1	90	0.00	29.754 
13:50	58.7	58.7	58.7	60	44.8	0	2	90	0.00	29.754 
13:55	58.6	58.6	58.6	61	45.2	0	1	90	0.00	29.754 
14:00	58.4	58.4	58.4	64	46.3	0	0	---	0.00	29.757 
14:05	58.0	58.0	58.0	67	47.1	0	0	---	0.01	29.757 
14:10	57.5	57.5	57.5	72	48.5	0	0	---	0.00	29.757 
14:15	57.0	57.0	57.0	75	49.2	0	1	90	0.00	29.771 
14:20	56.6	56.6	56.6	75	48.8	0	2	90	0.00	29.771 
14:25	56.3	56.3	56.3	76	48.8	0	1	90	0.00	29.771 
14:30	55.9	55.9	55.9	75	48.1	0	2	90	0.01	29.787 
14:35	55.6	55.6	55.6	76	48.2	0	1	270	0.00	29.787 
14:40	55.3	55.3	55.3	78	48.6	0	1	270	0.00	29.787 
14:45	55.0	55.0	55.0	80	48.9	0	1	270	0.01	29.789 
14:50	54.7	54.7	54.7	81	49.0	0	1	270	0.00	29.789 
14:55	54.5	54.5	54.5	83	49.4	0	1	270	0.01	29.789 
15:00	54.5	54.5	54.5	84	49.8	1	3	135	0.01	29.769 
15:05	54.4	54.4	54.4	85	50.0	0	1	135	0.00	29.769 
15:10	54.4	54.4	54.4	86	50.3	0	2	135	0.01	29.769 
15:15	54.4	54.4	54.4	86	50.3	0	1	135	0.00	29.777 
15:20	54.4	54.4	54.4	87	50.6	0	1	135	0.00	29.777 
15:25	54.4	54.4	54.4	88	50.9	0	1	135	0.00	29.777 
15:30	54.4	54.4	54.4	88	50.9	0	1	135	0.00	29.766 
15:35	54.5	54.5	54.5	88	51.0	0	1	135	0.00	29.766 
15:40	54.5	54.5	54.5	88	51.0	0	0	---	0.00	29.766 
15:45	54.5	54.5	54.5	88	51.0	0	1	135	0.00	29.778 
15:50	54.5	54.5	54.5	88	51.0	0	2	135	0.00	29.778 
15:55	54.5	54.5	54.5	88	51.0	0	1	135	0.00	29.778 
16:00	54.5	54.5	54.5	89	51.3	0	0	---	0.01	29.784 
16:05	54.7	54.7	54.7	89	51.5	0	1	135	0.00	29.784 
16:10	54.7	54.7	54.7	90	51.8	0	1	135	0.01	29.784 
16:15	54.5	54.5	54.5	90	51.6	0	3	135	0.00	29.779 
16:20	54.4	54.4	54.4	90	51.5	0	1	135	0.01	29.779 
16:25	54.1	54.1	54.1	90	51.2	0	2	135	0.00	29.779 
16:30	54.1	54.1	54.1	90	51.2	1	3	135	0.00	29.770 
16:35	54.1	54.1	54.1	90	51.2	1	3	135	0.00	29.770 
16:40	53.9	53.9	53.9	90	51.0	1	3	68	0.00	29.770 
16:45	54.4	54.4	54.4	91	51.8	1	3	45	0.00	29.763 
16:50	54.5	54.5	54.5	90	51.6	1	2	90	0.00	29.763 
16:55	54.7	54.7	54.7	90	51.8	1	5	90	0.00	29.763 
17:00	54.7	54.7	54.7	89	51.5	1	4	45	0.00	29.763 
17:05	54.8	54.8	54.8	90	51.9	1	3	68	0.00	29.763 
17:10	54.8	54.8	54.8	89	51.6	2	4	68	0.00	29.763 
17:15	54.8	54.8	54.8	89	51.6	2	5	90	0.00	29.756 
17:20	54.8	54.8	54.8	89	51.6	2	4	90	0.00	29.756 
17:25	54.8	54.8	54.8	88	51.3	2	4	90	0.00	29.756 
17:30	54.7	54.7	54.7	86	50.6	2	4	90	0.00	29.748 
17:35	54.7	54.7	54.7	85	50.3	2	7	90	0.00	29.748 
17:40	54.7	54.7	54.7	84	50.0	3	10	68	0.00	29.748 
17:45	54.7	54.7	54.7	82	49.3	3	5	90	0.00	29.734 
17:50	54.5	54.5	54.5	82	49.1	2	4	90	0.00	29.734 
17:55	54.5	54.5	54.5	81	48.8	3	7	90	0.00	29.734 
18:00	54.4	54.4	54.4	81	48.7	3	6	68	0.00	29.732 
18:05	54.4	54.4	54.4	80	48.4	3	8	90	0.00	29.732 
18:10	54.4	54.4	54.4	79	48.0	3	5	112	0.00	29.732 
18:15	54.4	54.4	54.4	78	47.7	3	6	112	0.00	29.735 
18:20	54.5	54.5	54.5	76	47.1	3	10	68	0.00	29.735 
18:25	54.5	54.5	54.5	75	46.7	2	6	90	0.00	29.735 
18:30	54.5	54.5	54.5	74	46.4	2	8	90	0.00	29.746 
18:35	54.5	54.5	54.5	75	46.7	2	5	90	0.00	29.746 
18:40	54.4	54.4	54.4	75	46.6	2	7	90	0.00	29.746 
18:45	54.4	54.4	54.4	76	47.0	1	4	90	0.00	29.765 
18:50	54.4	54.4	54.4	76	47.0	2	4	90	0.00	29.765 
18:55	54.2	54.2	54.2	78	47.5	1	2	90	0.00	29.765 
19:00	53.9	53.9	53.9	80	47.9	1	3	90	0.01	29.778 
19:05	53.5	53.5	53.5	82	48.1	1	3	90	0.00	29.778 
19:10	53.1	53.1	53.1	83	48.1	1	3	90	0.00	29.778 
19:15	52.9	52.9	52.9	84	48.2	1	4	90	0.01	29.762 
19:20	52.8	52.8	52.8	85	48.4	1	3	90	0.00	29.762 
19:25	52.5	52.5	52.5	85	48.1	2	7	90	0.00	29.762 
19:30	52.3	52.3	52.3	85	47.9	2	6	90	0.00	29.749 
19:35	52.2	52.2	52.2	84	47.5	2	4	90	0.00	29.749 
19:40	52.2	52.2	52.2	84	47.5	2	7	90	0.00	29.749 
19:45	52.0	52.0	52.0	84	47.3	3	6	90	0.00	29.736 
19:50	52.0	52.0	52.0	83	47.0	3	6	90	0.00	29.736 
19:55	51.9	51.9	51.9	83	46.9	2	6	112	0.00	29.736 
20:00	51.9	51.9	51.9	83	46.9	2	5	112	0.00	29.733 
20:05	51.7	51.7	51.7	83	46.7	3	6	90	0.00	29.733 
20:10	51.7	51.7	51.7	83	46.7	2	4	68	0.00	29.733 
20:15	51.7	51.7	51.7	83	46.7	2	6	112	0.00	29.719 
20:20	51.7	51.7	51.7	82	46.4	3	6	45	0.00	29.719 
20:25	51.7	51.7	51.7	82	46.4	3	6	112	0.00	29.719 
20:30	51.7	51.7	51.7	82	46.4	2	7	68	0.00	29.721 
20:35	51.6	51.6	51.6	82	46.3	3	9	112	0.00	29.721 
20:40	51.6	51.6	51.6	82	46.3	2	4	112	0.00	29.721 
20:45	51.4	51.4	51.4	82	46.1	2	6	112	0.00	29.708 
20:50	51.4	51.4	51.4	81	45.8	3	6	90	0.00	29.708 
20:55	51.4	51.4	51.4	81	45.8	3	6	90	0.00	29.708 
21:00	51.6	51.6	51.6	81	46.0	2	5	90	0.00	29.708 
21:05	51.6	51.6	51.6	81	46.0	2	9	112	0.00	29.708 
21:10	51.6	51.6	51.6	81	46.0	2	5	112	0.00	29.708 
21:15	51.6	51.6	51.6	82	46.3	2	7	90	0.00	29.711 
21:20	51.4	51.4	51.4	83	46.4	3	5	112	0.00	29.711 
21:25	51.3	51.3	51.3	84	46.6	2	5	90	0.00	29.711 
21:30	51.1	51.1	51.1	84	46.4	1	4	90	0.00	29.709 
21:35	51.0	51.0	51.0	85	46.7	2	4	90	0.00	29.709 
21:40	50.8	50.8	50.8	85	46.5	2	7	90	0.00	29.709 
21:45	50.7	50.7	50.7	86	46.7	2	5	45	0.00	29.714 
21:50	50.8	50.8	50.8	86	46.8	2	4	90	0.00	29.714 
21:55	50.8	50.8	50.8	86	46.8	2	4	90	0.00	29.714 
22:00	51.0	51.0	51.0	85	46.7	2	5	90	0.00	29.712 
22:05	51.0	51.0	51.0	85	46.7	2	4	90	0.00	29.712 
22:10	51.1	51.1	51.1	85	46.7	2	5	68	0.00	29.712 
22:15	51.1	51.1	51.1	84	46.4	2	3	68	0.00	29.702 
22:20	51.3	51.3	51.3	84	46.6	2	5	68	0.00	29.702 
22:25	51.3	51.3	51.3	84	46.6	2	4	68	0.00	29.702 
22:30	51.3	51.3	51.3	85	46.9	2	4	90	0.00	29.705 
22:35	51.1	51.1	51.1	85	46.7	2	4	112	0.00	29.705 
22:40	51.1	51.1	51.1	85	46.7	2	5	112	0.00	29.705 
22:45	51.1	51.1	51.1	85	46.7	2	5	90	0.00	29.704 
22:50	51.1	51.1	51.1	85	46.7	3	7	90	0.00	29.704 
22:55	51.1	51.1	51.1	86	47.1	2	5	90	0.00	29.704 
23:00	51.1	51.1	51.1	86	47.1	2	5	112	0.00	29.701 
23:05	51.1	51.1	51.1	86	47.1	2	5	90	0.00	29.701 
23:10	51.1	51.1	51.1	86	47.1	2	4	90	0.00	29.701 
23:15	51.1	51.1	51.1	86	47.1	2	4	90	0.00	29.696 
23:20	51.1	51.1	51.1	86	47.1	1	3	90	0.00	29.696 
23:25	51.0	51.0	51.0	86	47.0	1	4	90	0.00	29.696 
23:30	51.0	51.0	51.0	86	47.0	1	3	90	0.00	29.691 
23:35	51.0	51.0	51.0	86	47.0	1	4	90	0.00	29.691 
23:40	51.0	51.0	51.0	86	47.0	1	4	90	0.00	29.691 
23:45	51.0	51.0	51.0	87	47.3	1	3	90	0.00	29.695 
23:50	51.0	51.0	51.0	87	47.3	1	3	90	0.00	29.695 
23:55	51.0	51.0	51.0	87	47.3	1	3	90	0.00	29.695 

CoCoRaHS
IN-AL-39
A2 Web Hosting
Creative Commons License
GoDaddy
search engine by freefind advanced

loaded 2018-11-15 13:31:38 • last modified 2010-11-18 10:43:29
Privacy PolicyDisclaimer
• wx.awcolley.com is powered by PmWiki v.2002016 •
• all content (unless otherwise noted) © 2018 A W Colley